createdAt,value
2023-03-29T00:02:53.961Z,95702.00
2023-03-29T00:06:54.853Z,95718.00
2023-03-29T00:10:54.878Z,95716.00
2023-03-29T00:14:54.910Z,95736.00
2023-03-29T00:18:55.881Z,95750.00
2023-03-29T00:22:55.186Z,95752.00
2023-03-29T00:26:55.224Z,95759.00
2023-03-29T00:30:55.307Z,95769.00
2023-03-29T00:34:55.272Z,95763.00
2023-03-29T00:38:55.265Z,95761.00
2023-03-29T00:42:55.282Z,95765.00
2023-03-29T00:46:55.513Z,95773.00
2023-03-29T00:50:55.562Z,95771.00
2023-03-29T00:54:55.564Z,95763.00
2023-03-29T00:58:55.586Z,95777.00
2023-03-29T01:02:55.683Z,95775.00
2023-03-29T01:06:55.739Z,95789.00
2023-03-29T01:10:55.641Z,95789.00
2023-03-29T01:14:55.864Z,95781.00
2023-03-29T01:18:55.899Z,95781.00
2023-03-29T01:22:55.949Z,95775.00
2023-03-29T01:26:55.943Z,95775.00
2023-03-29T01:30:55.967Z,95773.00
2023-03-29T01:34:56.005Z,95771.00
2023-03-29T01:38:56.058Z,95765.00
2023-03-29T01:42:56.241Z,95765.00
2023-03-29T01:46:56.243Z,95754.00
2023-03-29T01:50:56.267Z,95748.00
2023-03-29T01:54:56.314Z,95750.00
2023-03-29T01:58:56.330Z,95748.00
2023-03-29T02:02:56.550Z,95752.00
2023-03-29T02:06:56.356Z,95750.00
2023-03-29T02:10:56.523Z,95756.00
2023-03-29T02:14:56.717Z,95748.00
2023-03-29T02:18:56.949Z,95730.00
2023-03-29T02:22:57.146Z,95722.00
2023-03-29T02:26:57.412Z,95712.00
2023-03-29T02:30:57.705Z,95724.00
2023-03-29T02:34:57.685Z,95714.00
2023-03-29T02:38:57.694Z,95704.00
2023-03-29T02:42:57.759Z,95712.00
2023-03-29T02:46:57.796Z,95704.00
2023-03-29T02:50:57.760Z,95702.00
2023-03-29T02:54:57.762Z,95714.00
2023-03-29T02:58:57.881Z,95689.00
2023-03-29T03:03:00.553Z,95689.00
2023-03-29T03:06:57.875Z,95675.00
2023-03-29T03:14:57.211Z,95669.00
2023-03-29T03:22:57.201Z,95665.00
2023-03-29T03:30:57.273Z,95673.00
2023-03-29T03:38:57.285Z,95677.00
2023-03-29T03:46:57.559Z,95677.00
2023-03-29T03:54:58.029Z,95671.00
2023-03-29T04:02:58.593Z,95677.00
2023-03-29T04:10:23.640Z,95655.00
2023-03-29T04:14:24.570Z,95667.00
2023-03-29T04:18:24.605Z,95663.00
2023-03-29T04:22:24.390Z,95673.00
2023-03-29T04:26:24.332Z,95665.00
2023-03-29T04:30:24.250Z,95651.00
2023-03-29T04:34:24.198Z,95663.00
2023-03-29T04:38:24.399Z,95649.00
2023-03-29T04:42:24.569Z,95644.00
2023-03-29T04:46:24.814Z,95646.00
2023-03-29T04:50:25.090Z,95648.00
2023-03-29T04:54:25.242Z,95640.00
2023-03-29T04:58:29.582Z,95634.00
2023-03-29T05:02:25.388Z,95632.00
2023-03-29T05:06:25.421Z,95620.00
2023-03-29T05:10:25.288Z,95612.00
2023-03-29T05:14:25.188Z,95606.00
2023-03-29T05:18:25.112Z,95608.00
2023-03-29T05:22:25.107Z,95606.00
2023-03-29T05:26:25.041Z,95610.00
2023-03-29T05:30:24.986Z,95610.00
2023-03-29T05:34:25.439Z,95602.00
2023-03-29T05:38:24.906Z,95602.00
2023-03-29T05:42:24.960Z,95593.00
2023-03-29T05:46:24.976Z,95608.00
2023-03-29T05:50:25.446Z,95597.00
2023-03-29T05:54:24.853Z,95612.00
2023-03-29T05:58:25.526Z,95604.00
2023-03-29T06:02:25.813Z,95606.00
2023-03-29T06:06:25.432Z,95612.00
2023-03-29T06:10:25.447Z,95606.00
2023-03-29T06:14:25.924Z,95616.00
2023-03-29T06:18:26.022Z,95616.00
2023-03-29T06:22:33.373Z,95618.00
2023-03-29T06:26:25.982Z,95624.00
2023-03-29T06:30:25.533Z,95624.00
2023-03-29T06:34:26.100Z,95624.00
2023-03-29T06:38:25.954Z,95630.00
2023-03-29T06:42:25.601Z,95626.00
2023-03-29T06:46:25.527Z,95628.00
2023-03-29T06:50:26.095Z,95630.00
2023-03-29T06:54:25.980Z,95638.00
2023-03-29T06:58:25.994Z,95642.00
2023-03-29T07:02:26.817Z,95640.00
2023-03-29T07:06:25.965Z,95640.00
2023-03-29T07:10:26.093Z,95649.00
2023-03-29T07:14:26.000Z,95653.00
2023-03-29T07:18:25.946Z,95663.00
2023-03-29T07:22:25.965Z,95655.00
2023-03-29T07:26:29.029Z,95665.00
2023-03-29T07:30:26.072Z,95655.00
2023-03-29T07:34:26.034Z,95655.00
2023-03-29T07:38:27.023Z,95667.00
2023-03-29T07:42:26.689Z,95665.00
2023-03-29T07:46:26.612Z,95673.00
2023-03-29T07:50:26.548Z,95665.00
2023-03-29T07:54:26.468Z,95667.00
2023-03-29T07:58:26.455Z,95671.00
2023-03-29T08:02:26.520Z,95673.00
2023-03-29T08:06:26.963Z,95671.00
2023-03-29T08:10:27.014Z,95671.00
2023-03-29T08:14:26.490Z,95667.00
2023-03-29T08:18:26.886Z,95665.00
2023-03-29T08:22:26.287Z,95665.00
2023-03-29T08:26:26.469Z,95671.00
2023-03-29T08:30:26.559Z,95665.00
2023-03-29T08:34:26.426Z,95673.00
2023-03-29T08:38:26.908Z,95671.00
2023-03-29T08:42:27.012Z,95681.00
2023-03-29T08:46:33.106Z,95671.00
2023-03-29T08:50:26.639Z,95673.00
2023-03-29T08:54:25.622Z,95679.00
2023-03-29T08:58:26.526Z,95679.00
2023-03-29T09:02:27.019Z,95689.00
2023-03-29T09:06:27.003Z,95693.00
2023-03-29T09:10:26.983Z,95691.00
2023-03-29T09:14:27.117Z,95691.00
2023-03-29T09:18:27.024Z,95695.00
2023-03-29T09:22:26.804Z,95689.00
2023-03-29T09:26:27.136Z,95695.00
2023-03-29T09:30:27.014Z,95691.00
2023-03-29T09:34:26.985Z,95697.00
2023-03-29T09:38:26.882Z,95685.00
2023-03-29T09:42:26.992Z,95689.00
2023-03-29T09:46:27.011Z,95685.00
2023-03-29T09:50:31.318Z,95679.00
2023-03-29T09:54:27.116Z,95683.00
2023-03-29T09:58:26.528Z,95685.00
2023-03-29T10:02:26.581Z,95683.00
2023-03-29T10:06:26.628Z,95681.00
2023-03-29T10:10:26.555Z,95683.00
2023-03-29T10:14:26.537Z,95679.00
2023-03-29T10:18:25.933Z,95665.00
2023-03-29T10:22:26.176Z,95669.00
2023-03-29T10:26:26.064Z,95667.00
2023-03-29T10:30:26.034Z,95669.00
2023-03-29T10:34:26.275Z,95671.00
2023-03-29T10:38:25.442Z,95667.00
2023-03-29T10:42:25.570Z,95651.00
2023-03-29T10:46:25.553Z,95651.00
2023-03-29T10:50:25.521Z,95651.00
2023-03-29T10:54:25.545Z,95640.00
2023-03-29T10:58:25.611Z,95640.00
2023-03-29T11:02:25.619Z,95638.00
2023-03-29T11:06:25.556Z,95640.00
2023-03-29T11:10:25.544Z,95632.00
2023-03-29T11:14:25.404Z,95630.00
2023-03-29T11:18:25.554Z,95626.00
2023-03-29T11:22:25.558Z,95632.00
2023-03-29T11:26:25.579Z,95616.00
2023-03-29T11:30:25.295Z,95614.00
2023-03-29T11:34:25.598Z,95604.00
2023-03-29T11:38:25.581Z,95602.00
2023-03-29T11:42:26.798Z,95604.00
2023-03-29T11:46:26.096Z,95595.00
2023-03-29T11:50:26.104Z,95597.00
2023-03-29T11:54:26.047Z,95591.00
2023-03-29T11:58:26.074Z,95583.00
2023-03-29T12:02:26.190Z,95571.00
2023-03-29T12:06:26.094Z,95567.00
2023-03-29T12:10:25.720Z,95565.00
2023-03-29T12:14:27.826Z,95561.00
2023-03-29T12:18:26.084Z,95554.00
2023-03-29T12:22:25.571Z,95544.00
2023-03-29T12:26:25.552Z,95548.00
2023-03-29T12:30:25.552Z,95546.00
2023-03-29T12:34:25.582Z,95544.00
2023-03-29T12:38:26.054Z,95544.00
2023-03-29T12:42:25.556Z,95530.00
2023-03-29T12:46:25.667Z,95532.00
2023-03-29T12:50:25.655Z,95514.00
2023-03-29T12:54:27.558Z,95514.00
2023-03-29T12:58:25.093Z,95506.00
2023-03-29T13:02:25.184Z,95504.00
2023-03-29T13:06:25.091Z,95499.00
2023-03-29T13:10:24.787Z,95493.00
2023-03-29T13:14:25.087Z,95481.00
2023-03-29T13:18:25.075Z,95481.00
2023-03-29T13:22:25.102Z,95475.00
2023-03-29T13:26:24.556Z,95479.00
2023-03-29T13:30:25.075Z,95485.00
2023-03-29T13:34:24.947Z,95497.00
2023-03-29T13:38:26.114Z,95489.00
2023-03-29T13:42:25.326Z,95499.00
2023-03-29T13:46:25.671Z,95485.00
2023-03-29T13:50:26.111Z,95481.00
2023-03-29T13:54:25.934Z,95481.00
2023-03-29T13:58:26.103Z,95481.00
2023-03-29T14:02:26.171Z,95479.00
2023-03-29T14:06:26.122Z,95481.00
2023-03-29T14:10:26.175Z,95475.00
2023-03-29T14:14:26.121Z,95477.00
2023-03-29T14:18:25.619Z,95481.00
2023-03-29T14:22:25.526Z,95477.00
2023-03-29T14:26:25.618Z,95473.00
2023-03-29T14:30:25.683Z,95469.00
2023-03-29T14:34:25.624Z,95471.00
2023-03-29T14:38:25.432Z,95471.00
2023-03-29T14:42:26.159Z,95465.00
2023-03-29T14:46:25.610Z,95463.00
2023-03-29T14:50:25.621Z,95469.00
2023-03-29T14:54:25.554Z,95461.00
2023-03-29T14:58:25.520Z,95457.00
2023-03-29T15:02:25.581Z,95463.00
2023-03-29T15:06:25.610Z,95457.00
2023-03-29T15:10:25.568Z,95465.00
2023-03-29T15:14:25.539Z,95461.00
2023-03-29T15:18:25.584Z,95459.00
2023-03-29T15:22:25.661Z,95461.00
2023-03-29T15:26:25.429Z,95461.00
2023-03-29T15:30:25.667Z,95463.00
2023-03-29T15:34:25.398Z,95463.00
2023-03-29T15:38:33.381Z,95465.00
2023-03-29T15:42:25.483Z,95465.00
2023-03-29T15:46:25.490Z,95467.00
2023-03-29T15:50:25.445Z,95473.00
2023-03-29T15:54:25.363Z,95465.00
2023-03-29T15:58:25.342Z,95467.00
2023-03-29T16:02:25.493Z,95459.00
2023-03-29T16:06:25.479Z,95461.00
2023-03-29T16:10:25.396Z,95459.00
2023-03-29T16:14:25.449Z,95461.00
2023-03-29T16:18:25.345Z,95453.00
2023-03-29T16:22:25.307Z,95453.00
2023-03-29T16:26:25.234Z,95450.00
2023-03-29T16:30:25.212Z,95453.00
2023-03-29T16:34:25.156Z,95450.00
2023-03-29T16:38:25.164Z,95452.00
2023-03-29T16:42:25.061Z,95452.00
2023-03-29T16:46:25.079Z,95448.00
2023-03-29T16:50:25.056Z,95448.00
2023-03-29T16:54:24.963Z,95440.00
2023-03-29T16:58:24.889Z,95440.00
2023-03-29T17:02:25.012Z,95442.00
2023-03-29T17:06:24.991Z,95438.00
2023-03-29T17:10:24.931Z,95434.00
2023-03-29T17:14:24.875Z,95420.00
2023-03-29T17:18:24.863Z,95436.00
2023-03-29T17:22:24.852Z,95428.00
2023-03-29T17:26:24.825Z,95436.00
2023-03-29T17:30:24.760Z,95432.00
2023-03-29T17:34:24.708Z,95432.00
2023-03-29T17:38:24.661Z,95436.00
2023-03-29T17:42:24.560Z,95442.00
2023-03-29T17:46:24.649Z,95438.00
2023-03-29T17:50:24.484Z,95440.00
2023-03-29T17:54:24.468Z,95444.00
2023-03-29T17:58:24.426Z,95450.00
2023-03-29T18:02:24.687Z,95461.00
2023-03-29T18:06:24.649Z,95463.00
2023-03-29T18:10:24.668Z,95457.00
2023-03-29T18:14:24.712Z,95452.00
2023-03-29T18:18:25.175Z,95450.00
2023-03-29T18:22:24.904Z,95452.00
2023-03-29T18:26:24.835Z,95465.00
2023-03-29T18:30:24.787Z,95471.00
2023-03-29T18:34:24.796Z,95467.00
2023-03-29T18:38:24.853Z,95469.00
2023-03-29T18:42:24.888Z,95444.00
2023-03-29T18:46:24.939Z,95465.00
2023-03-29T18:50:24.807Z,95463.00
2023-03-29T18:54:24.800Z,95467.00
2023-03-29T18:58:24.780Z,95461.00
2023-03-29T19:02:24.790Z,95467.00
2023-03-29T19:06:24.746Z,95469.00
2023-03-29T19:10:24.864Z,95473.00
2023-03-29T19:14:24.804Z,95483.00
2023-03-29T19:18:24.785Z,95489.00
2023-03-29T19:22:24.776Z,95497.00
2023-03-29T19:26:24.839Z,95512.00
2023-03-29T19:30:24.848Z,95508.00
2023-03-29T19:34:24.811Z,95516.00
2023-03-29T19:38:24.816Z,95520.00
2023-03-29T19:42:24.890Z,95518.00
2023-03-29T19:46:24.875Z,95510.00
2023-03-29T19:50:24.833Z,95499.00
2023-03-29T19:54:24.798Z,95500.00
2023-03-29T19:58:24.855Z,95512.00
2023-03-29T20:02:24.885Z,95518.00
2023-03-29T20:06:24.877Z,95508.00
2023-03-29T20:10:24.860Z,95500.00
2023-03-29T20:14:24.841Z,95497.00
2023-03-29T20:18:24.993Z,95502.00
2023-03-29T20:22:24.882Z,95510.00
2023-03-29T20:26:24.899Z,95520.00
2023-03-29T20:30:24.869Z,95518.00
2023-03-29T20:34:24.893Z,95516.00
2023-03-29T20:38:24.912Z,95524.00
2023-03-29T20:42:24.911Z,95534.00
2023-03-29T20:46:24.911Z,95530.00
2023-03-29T20:50:24.939Z,95530.00
2023-03-29T20:54:25.034Z,95530.00
2023-03-29T20:58:25.065Z,95526.00
2023-03-29T21:02:25.093Z,95504.00
2023-03-29T21:06:25.079Z,95495.00
2023-03-29T21:10:25.135Z,95475.00
2023-03-29T21:14:25.102Z,95483.00
2023-03-29T21:18:25.074Z,95485.00
2023-03-29T21:22:25.140Z,95479.00
2023-03-29T21:26:25.169Z,95473.00
2023-03-29T21:30:25.104Z,95471.00
2023-03-29T21:34:25.106Z,95471.00
2023-03-29T21:38:25.514Z,95461.00
2023-03-29T21:42:25.181Z,95459.00
2023-03-29T21:46:25.248Z,95453.00
2023-03-29T21:50:25.293Z,95463.00
2023-03-29T21:54:25.293Z,95463.00
2023-03-29T21:58:25.339Z,95457.00
2023-03-29T22:02:25.341Z,95450.00
2023-03-29T22:06:25.346Z,95450.00
2023-03-29T22:10:25.410Z,95453.00
2023-03-29T22:14:25.454Z,95455.00
2023-03-29T22:18:25.424Z,95452.00
2023-03-29T22:22:25.428Z,95453.00
2023-03-29T22:26:25.443Z,95453.00
2023-03-29T22:30:25.532Z,95448.00
2023-03-29T22:34:25.469Z,95448.00
2023-03-29T22:38:25.510Z,95446.00
2023-03-29T22:42:25.500Z,95436.00
2023-03-29T22:46:25.548Z,95428.00
2023-03-29T22:50:25.567Z,95428.00
2023-03-29T22:54:25.529Z,95426.00
2023-03-29T22:58:25.538Z,95416.00
2023-03-29T23:02:25.506Z,95418.00
